Albatross — V7FX9 — position and weather

sailwx.info

Track history (hours):
 
Tides and Currents Weather Stations Pressure Air Temp Water Temp Dewpoint Dewpoint Depression Visibility Wind Speed Wind Dir Waves Ship Positions

Albatross

Last reported at 2017-Nov-19 03:12 UTC. Time now 2017-Nov-23 05:42 UTC.
Position N 36°28' E 014°52'.

; draft 10.1 m.

Type: Ship. MMSI: 538002042.

Date/timePositionNaut miles runAvg speedWind from/ knotsBaromVisibWave heightAir tempDewpointWater temp
2017-Nov-19 03:12N 36°28' E 014°52'612.8
2017-Nov-19 02:45N 36°26' E 014°45'313.5
2017-Nov-19 02:30N 36°26' E 014°41'713.4
2017-Nov-19 02:00N 36°27' E 014°33'713.6
2017-Nov-19 01:30N 36°29' E 014°25'713.5
2017-Nov-19 01:00N 36°31' E 014°16'713.6
2017-Nov-19 00:30N 36°33' E 014°08'  
2017-Nov-16 07:56N 36°00' W 005°12'613.6
2017-Nov-16 07:30N 35°60' W 005°20'713.3
2017-Nov-16 07:00N 35°58' W 005°27'22611.7
2017-Nov-15 11:44N 37°29' W 009°45'313.8
2017-Nov-15 11:30N 37°32' W 009°46'713.6
2017-Nov-15 11:00N 37°39' W 009°48'714.1
2017-Nov-15 10:30N 37°46' W 009°50'814.0
2017-Nov-15 09:55N 37°54' W 009°52'613.9
2017-Nov-15 09:30N 37°59' W 009°54'713.8
2017-Nov-15 09:00N 38°06' W 009°56'714.0
2017-Nov-15 08:30N 38°13' W 009°58'713.8
2017-Nov-15 08:00N 38°20' W 009°60'713.8
2017-Nov-15 07:30N 38°26' W 010°02'713.7
2017-Nov-15 07:00N 38°33' W 010°03'713.3
2017-Nov-15 06:30N 38°40' W 010°05'713.3
2017-Nov-15 06:00N 38°46' W 010°06'713.9
2017-Nov-15 05:30N 38°53' W 010°07'714.0
2017-Nov-15 05:00N 39°00' W 010°06'714.0
2017-Nov-15 04:30N 39°07' W 010°06'714.1
2017-Nov-15 04:00N 39°14' W 010°06'714.1
2017-Nov-15 03:30N 39°21' W 010°07'713.5
2017-Nov-15 03:00N 39°28' W 010°07'813.7
2017-Nov-15 02:25N 39°36' W 010°06'66313.6
2017-Nov-13 01:44N 49°43' W 003°51'313.1
2017-Nov-13 01:31N 49°45' W 003°47'713.1
2017-Nov-13 01:00N 49°49' W 003°38'713.2
2017-Nov-13 00:31N 49°52' W 003°29'713.5
2017-Nov-13 00:00N 49°55' W 003°20'713.8
2017-Nov-12 23:30N 49°58' W 003°10'714.0
2017-Nov-12 23:00N 49°59' W 002°60'714.4
2017-Nov-12 22:30N 50°00' W 002°49'714.9
2017-Nov-12 22:00N 50°02' W 002°37'815.3
2017-Nov-12 21:30N 50°04' W 002°26'6214.8
2017-Nov-12 17:18N 50°20' W 000°52'1412.1
2017-Nov-12 16:11N 50°24' W 000°31'212.0
2017-Nov-12 16:00N 50°24' W 000°28'612.1
2017-Nov-12 15:30N 50°26' W 000°19'612.2
2017-Nov-12 15:00N 50°28' W 000°10'612.1
2017-Nov-12 14:30N 50°30' W 000°01'612.2
2017-Nov-12 14:00N 50°31' E 000°09'612.8
2017-Nov-12 13:30N 50°33' E 000°18'713.1
2017-Nov-12 13:01N 50°35' E 000°28'713.9
2017-Nov-12 12:31N 50°38' E 000°38'714.2
2017-Nov-12 12:01N 50°42' E 000°47'814.4
2017-Nov-12 11:28N 50°46' E 000°58'814.2
2017-Nov-12 10:54N 50°50' E 001°09'513.9
2017-Nov-12 10:30N 50°53' E 001°16'713.7
2017-Nov-12 10:00N 50°58' E 001°23'612.3
2017-Nov-12 09:31N 51°03' E 001°30'611.5
2017-Nov-12 09:01N 51°07' E 001°36'611.2
2017-Nov-12 08:31N 51°11' E 001°42'611.5
2017-Nov-12 08:01N 51°15' E 001°48'612.2
2017-Nov-12 07:31N 51°21' E 001°52'612.3
2017-Nov-12 07:01N 51°26' E 001°58'4 8.4
2017-Nov-12 06:30N 51°29' E 002°02'510.9
2017-Nov-12 06:00N 51°33' E 002°08'611.7
2017-Nov-12 05:30N 51°38' E 002°14'47511.2
2017-Nov-10 10:57N 57°52' E 010°42'712.0
2017-Nov-10 10:24N 57°47' E 010°51'512.6
2017-Nov-10 10:00N 57°44' E 010°58'612.6
2017-Nov-10 09:30N 57°39' E 011°06'613.0
2017-Nov-10 09:00N 57°35' E 011°14'713.3
2017-Nov-10 08:30N 57°30' E 011°23'612.6
2017-Nov-10 08:00N 57°24' E 011°29'612.9
2017-Nov-10 07:30N 57°18' E 011°33'713.1
2017-Nov-10 07:00N 57°12' E 011°37'713.1
2017-Nov-10 06:28N 57°05' E 011°41'10811.7
2017-Nov-09 21:15N 55°19' E 011°03'513.3
2017-Nov-09 20:51N 55°14' E 011°06'412.8
2017-Nov-09 20:30N 55°10' E 011°04'713.2
2017-Nov-09 20:00N 55°03' E 011°03'612.6
2017-Nov-09 19:30N 54°58' E 010°58'612.7
2017-Nov-09 19:00N 54°52' E 010°53'713.1
2017-Nov-09 18:30N 54°45' E 010°53'611.6
2017-Nov-09 18:00N 54°40' E 010°58'611.7
2017-Nov-09 17:31N 54°37' E 011°07'612.2
2017-Nov-09 17:00N 54°34' E 011°16'612.9
2017-Nov-09 16:30N 54°32' E 011°26'612.5
2017-Nov-09 16:00N 54°29' E 011°36'612.4
2017-Nov-09 15:30N 54°27' E 011°46'712.0
2017-Nov-09 14:56N 54°26' E 011°57'511.9
2017-Nov-09 14:30N 54°26' E 012°06'611.3
2017-Nov-09 14:00N 54°31' E 012°12'3711.6
2017-Nov-09 10:48N 54°52' E 013°05'412.5
2017-Nov-09 10:28N 54°53' E 013°12'612.5
2017-Nov-09 09:59N 54°55' E 013°22'812.8
2017-Nov-09 09:20N 54°58' E 013°35'512.8
2017-Nov-09 08:59N 54°60' E 013°43'1512.3
2017-Nov-09 07:47N 55°05' E 014°06'413.9
2017-Nov-09 07:30N 55°08' E 014°10'714.9
2017-Nov-09 07:00N 55°14' E 014°18'815.1
2017-Nov-09 06:30N 55°20' E 014°27'714.3
2017-Nov-09 06:00N 55°26' E 014°34'714.4
2017-Nov-09 05:30N 55°30' E 014°45'714.6
2017-Nov-09 05:00N 55°33' E 014°57'714.6
2017-Nov-09 04:31N 55°36' E 015°08'714.4
2017-Nov-09 04:00N 55°39' E 015°20'714.6
2017-Nov-09 03:31N 55°41' E 015°32'  
Track history (hours):
 
Tides and Currents Weather Stations Pressure Air Temp Water Temp Dewpoint Dewpoint Depression Visibility Wind Speed Wind Dir Waves Ship Positions

Albatross

Last reported at 2017-Nov-19 03:12 UTC. Time now 2017-Nov-23 05:42 UTC.
Position N 36°28' E 014°52'.

; draft 10.1 m.

Type: Ship. MMSI: 538002042.

Date/timePositionNaut miles runAvg speedWind from/ knotsBaromVisibWave heightAir tempDewpointWater temp
2017-Nov-19 03:12N 36°28' E 014°52'612.8
2017-Nov-19 02:45N 36°26' E 014°45'313.5
2017-Nov-19 02:30N 36°26' E 014°41'713.4
2017-Nov-19 02:00N 36°27' E 014°33'713.6
2017-Nov-19 01:30N 36°29' E 014°25'713.5
2017-Nov-19 01:00N 36°31' E 014°16'713.6
2017-Nov-19 00:30N 36°33' E 014°08'  
2017-Nov-16 07:56N 36°00' W 005°12'613.6
2017-Nov-16 07:30N 35°60' W 005°20'713.3
2017-Nov-16 07:00N 35°58' W 005°27'22611.7
2017-Nov-15 11:44N 37°29' W 009°45'313.8
2017-Nov-15 11:30N 37°32' W 009°46'713.6
2017-Nov-15 11:00N 37°39' W 009°48'714.1
2017-Nov-15 10:30N 37°46' W 009°50'814.0
2017-Nov-15 09:55N 37°54' W 009°52'613.9
2017-Nov-15 09:30N 37°59' W 009°54'713.8
2017-Nov-15 09:00N 38°06' W 009°56'714.0
2017-Nov-15 08:30N 38°13' W 009°58'713.8
2017-Nov-15 08:00N 38°20' W 009°60'713.8
2017-Nov-15 07:30N 38°26' W 010°02'713.7
2017-Nov-15 07:00N 38°33' W 010°03'713.3
2017-Nov-15 06:30N 38°40' W 010°05'713.3
2017-Nov-15 06:00N 38°46' W 010°06'713.9
2017-Nov-15 05:30N 38°53' W 010°07'714.0
2017-Nov-15 05:00N 39°00' W 010°06'714.0
2017-Nov-15 04:30N 39°07' W 010°06'714.1
2017-Nov-15 04:00N 39°14' W 010°06'714.1
2017-Nov-15 03:30N 39°21' W 010°07'713.5
2017-Nov-15 03:00N 39°28' W 010°07'813.7
2017-Nov-15 02:25N 39°36' W 010°06'66313.6
2017-Nov-13 01:44N 49°43' W 003°51'313.1
2017-Nov-13 01:31N 49°45' W 003°47'713.1
2017-Nov-13 01:00N 49°49' W 003°38'713.2
2017-Nov-13 00:31N 49°52' W 003°29'713.5
2017-Nov-13 00:00N 49°55' W 003°20'713.8
2017-Nov-12 23:30N 49°58' W 003°10'714.0
2017-Nov-12 23:00N 49°59' W 002°60'714.4
2017-Nov-12 22:30N 50°00' W 002°49'714.9
2017-Nov-12 22:00N 50°02' W 002°37'815.3
2017-Nov-12 21:30N 50°04' W 002°26'6214.8
2017-Nov-12 17:18N 50°20' W 000°52'1412.1
2017-Nov-12 16:11N 50°24' W 000°31'212.0
2017-Nov-12 16:00N 50°24' W 000°28'612.1
2017-Nov-12 15:30N 50°26' W 000°19'612.2
2017-Nov-12 15:00N 50°28' W 000°10'612.1
2017-Nov-12 14:30N 50°30' W 000°01'612.2
2017-Nov-12 14:00N 50°31' E 000°09'612.8
2017-Nov-12 13:30N 50°33' E 000°18'713.1
2017-Nov-12 13:01N 50°35' E 000°28'713.9
2017-Nov-12 12:31N 50°38' E 000°38'714.2
2017-Nov-12 12:01N 50°42' E 000°47'814.4
2017-Nov-12 11:28N 50°46' E 000°58'814.2
2017-Nov-12 10:54N 50°50' E 001°09'513.9
2017-Nov-12 10:30N 50°53' E 001°16'713.7
2017-Nov-12 10:00N 50°58' E 001°23'612.3
2017-Nov-12 09:31N 51°03' E 001°30'611.5
2017-Nov-12 09:01N 51°07' E 001°36'611.2
2017-Nov-12 08:31N 51°11' E 001°42'611.5
2017-Nov-12 08:01N 51°15' E 001°48'612.2
2017-Nov-12 07:31N 51°21' E 001°52'612.3
2017-Nov-12 07:01N 51°26' E 001°58'4 8.4
2017-Nov-12 06:30N 51°29' E 002°02'510.9
2017-Nov-12 06:00N 51°33' E 002°08'611.7
2017-Nov-12 05:30N 51°38' E 002°14'47511.2
2017-Nov-10 10:57N 57°52' E 010°42'712.0
2017-Nov-10 10:24N 57°47' E 010°51'512.6
2017-Nov-10 10:00N 57°44' E 010°58'612.6
2017-Nov-10 09:30N 57°39' E 011°06'613.0
2017-Nov-10 09:00N 57°35' E 011°14'713.3
2017-Nov-10 08:30N 57°30' E 011°23'612.6
2017-Nov-10 08:00N 57°24' E 011°29'612.9
2017-Nov-10 07:30N 57°18' E 011°33'713.1
2017-Nov-10 07:00N 57°12' E 011°37'713.1
2017-Nov-10 06:28N 57°05' E 011°41'10811.7
2017-Nov-09 21:15N 55°19' E 011°03'513.3
2017-Nov-09 20:51N 55°14' E 011°06'412.8
2017-Nov-09 20:30N 55°10' E 011°04'713.2
2017-Nov-09 20:00N 55°03' E 011°03'612.6
2017-Nov-09 19:30N 54°58' E 010°58'612.7
2017-Nov-09 19:00N 54°52' E 010°53'713.1
2017-Nov-09 18:30N 54°45' E 010°53'611.6
2017-Nov-09 18:00N 54°40' E 010°58'611.7
2017-Nov-09 17:31N 54°37' E 011°07'612.2
2017-Nov-09 17:00N 54°34' E 011°16'612.9
2017-Nov-09 16:30N 54°32' E 011°26'612.5
2017-Nov-09 16:00N 54°29' E 011°36'612.4
2017-Nov-09 15:30N 54°27' E 011°46'712.0
2017-Nov-09 14:56N 54°26' E 011°57'511.9
2017-Nov-09 14:30N 54°26' E 012°06'611.3
2017-Nov-09 14:00N 54°31' E 012°12'3711.6
2017-Nov-09 10:48N 54°52' E 013°05'412.5
2017-Nov-09 10:28N 54°53' E 013°12'612.5
2017-Nov-09 09:59N 54°55' E 013°22'812.8
2017-Nov-09 09:20N 54°58' E 013°35'512.8
2017-Nov-09 08:59N 54°60' E 013°43'1512.3
2017-Nov-09 07:47N 55°05' E 014°06'413.9
2017-Nov-09 07:30N 55°08' E 014°10'714.9
2017-Nov-09 07:00N 55°14' E 014°18'815.1
2017-Nov-09 06:30N 55°20' E 014°27'714.3
2017-Nov-09 06:00N 55°26' E 014°34'714.4
2017-Nov-09 05:30N 55°30' E 014°45'714.6
2017-Nov-09 05:00N 55°33' E 014°57'714.6
2017-Nov-09 04:31N 55°36' E 015°08'714.4
2017-Nov-09 04:00N 55°39' E 015°20'714.6
2017-Nov-09 03:31N 55°41' E 015°32'  

Dump ship's entire track history